Mount Pisgah, Ohio
Current Conditions -  °F | °C
As of 9:53 PM on Monday 22 Dec 2014 (Local Time) from KLUK Reporting Station
Clear Clear  
Wind Chill: 39°   Ceiling: Unl
Heat Index: 42°   Visibility: 10mi
Dew Point: 37°   Wind: 5mph
Humidity: 82%   Direction: 360°N
Pressure: 29.75"   Gusts: NA
Location:  38.9542°N, 84.2299°W
Report Text: KLUK 230253Z 36004KT 10SM CLR 06/03 A2975 RMK AO2 SLP076 T00560028 58020
Loading
Personal Weather Stations






























Interactive Weather Map New forecast layout! Learn more

10-Day Weather Forecast

Advertisements
Track Severe Weather on mobile